createdAt,value
2019-02-25T00:01:14.963Z,103520.03
2019-02-25T00:03:45.324Z,103517.37
2019-02-25T00:06:15.874Z,103519.59
2019-02-25T00:08:46.808Z,103518.25
2019-02-25T00:11:17.095Z,103516.02
2019-02-25T00:13:47.278Z,103516.47
2019-02-25T00:16:28.490Z,103513.33
2019-02-25T00:18:58.687Z,103508.88
2019-02-25T00:21:45.019Z,103501.25
2019-02-25T00:24:15.210Z,103490.55
2019-02-25T00:34:22.299Z,103484.28
2019-02-25T00:36:52.471Z,103483.37
2019-02-25T00:39:22.660Z,103490.97
2019-02-25T00:41:52.899Z,103490.96
2019-02-25T00:44:23.094Z,103487.84
2019-02-25T00:47:03.357Z,103489.17
2019-02-25T00:49:34.531Z,103497.67
2019-02-25T00:52:04.780Z,103486.50
2019-02-25T00:54:34.961Z,103491.42
2019-02-25T00:57:06.175Z,103496.78
2019-02-25T00:59:45.166Z,103501.27
2019-02-25T01:02:15.354Z,103494.98
2019-02-25T01:04:53.041Z,103504.80
2019-02-25T01:07:32.107Z,103495.41
2019-02-25T01:10:02.299Z,103500.31
2019-02-25T01:12:33.553Z,103500.25
2019-02-25T01:15:04.400Z,103495.80
2019-02-25T01:17:34.645Z,103502.98
2019-02-25T01:20:07.776Z,103500.31
2019-02-25T01:22:44.161Z,103510.97
2019-02-25T01:25:30.749Z,103506.52
2019-02-25T01:28:13.802Z,103507.35
2019-02-25T01:30:44.007Z,103504.27
2019-02-25T01:33:14.183Z,103504.73
2019-02-25T01:35:44.386Z,103503.37
2019-02-25T01:38:15.717Z,103498.05
2019-02-25T01:40:46.035Z,103494.50
2019-02-25T01:43:16.224Z,103492.19
2019-02-25T01:45:46.421Z,103493.97
2019-02-25T01:48:16.610Z,103485.94
2019-02-25T01:50:46.818Z,103480.08
2019-02-25T01:53:17.012Z,103485.00
2019-02-25T01:55:49.154Z,103481.41
2019-02-25T01:58:19.343Z,103481.82
2019-02-25T02:00:49.530Z,103478.61
2019-02-25T02:03:23.878Z,103480.39
2019-02-25T02:06:07.979Z,103476.34
2019-02-25T02:08:51.528Z,103472.27
2019-02-25T02:11:21.713Z,103469.63
2019-02-25T02:13:51.932Z,103468.72
2019-02-25T02:16:22.096Z,103471.77
2019-02-25T02:18:59.356Z,103471.86
2019-02-25T02:21:29.533Z,103464.76
2019-02-25T02:23:59.717Z,103468.75
2019-02-25T02:26:29.900Z,103463.39
2019-02-25T02:29:02.087Z,103467.41
2019-02-25T02:31:32.278Z,103475.00
2019-02-25T02:34:02.458Z,103473.20
2019-02-25T02:36:32.648Z,103473.14
2019-02-25T02:39:03.110Z,103471.30
2019-02-25T02:41:40.865Z,103471.23
2019-02-25T02:44:11.059Z,103476.55
2019-02-25T02:47:19.180Z,103474.34
2019-02-25T02:49:49.367Z,103477.56
2019-02-25T02:52:22.598Z,103474.45
2019-02-25T02:54:52.810Z,103472.64
2019-02-25T02:57:22.992Z,103475.38
2019-02-25T02:59:53.190Z,103474.48
2019-02-25T03:02:29.921Z,103471.37
2019-02-25T03:05:00.285Z,103465.55
2019-02-25T03:07:30.444Z,103465.61
2019-02-25T03:10:00.632Z,103472.73
2019-02-25T03:12:30.830Z,103476.72
2019-02-25T03:15:01.037Z,103474.51
2019-02-25T03:17:31.284Z,103480.80
2019-02-25T03:20:02.630Z,103480.33
2019-02-25T03:22:32.876Z,103477.22
2019-02-25T03:25:19.456Z,103472.33
2019-02-25T03:27:49.616Z,103475.03
2019-02-25T03:30:21.723Z,103470.55
2019-02-25T03:32:51.924Z,103471.45
2019-02-25T03:35:22.131Z,103470.11
2019-02-25T03:37:52.321Z,103462.54
2019-02-25T03:40:23.565Z,103471.02
2019-02-25T03:42:53.770Z,103467.48
2019-02-25T03:45:23.959Z,103471.50
2019-02-25T03:47:59.601Z,103473.27
2019-02-25T03:50:36.838Z,103472.38
2019-02-25T03:53:08.575Z,103471.92
2019-02-25T03:55:38.836Z,103468.25
2019-02-25T03:58:28.192Z,103462.34
2019-02-25T04:00:58.378Z,103457.42
2019-02-25T04:03:28.564Z,103456.58
2019-02-25T04:06:05.969Z,103452.94
2019-02-25T04:08:36.152Z,103456.52
2019-02-25T04:11:06.348Z,103456.55
2019-02-25T04:13:39.206Z,103465.95
2019-02-25T04:16:09.459Z,103471.30
2019-02-25T04:18:39.657Z,103472.61
2019-02-25T04:21:09.847Z,103475.29
2019-02-25T04:23:49.007Z,103469.09
2019-02-25T04:26:19.202Z,103477.56
2019-02-25T04:28:49.392Z,103482.02
2019-02-25T04:31:38.050Z,103476.63
2019-02-25T04:34:14.695Z,103473.08
2019-02-25T04:36:44.870Z,103475.69
2019-02-25T04:39:25.557Z,103474.81
2019-02-25T04:41:55.725Z,103466.75
2019-02-25T04:44:29.738Z,103463.97
2019-02-25T04:46:59.936Z,103470.30
2019-02-25T04:49:30.122Z,103467.19
2019-02-25T04:52:01.228Z,103472.06
2019-02-25T04:54:31.421Z,103476.52
2019-02-25T04:57:01.628Z,103472.07
2019-02-25T04:59:31.822Z,103468.95
2019-02-25T05:02:02.395Z,103473.84
2019-02-25T05:04:32.667Z,103465.78
2019-02-25T05:07:02.880Z,103459.48
2019-02-25T05:09:33.059Z,103459.95
2019-02-25T05:12:03.247Z,103462.20
2019-02-25T05:14:40.026Z,103458.61
2019-02-25T05:17:45.416Z,103456.33
2019-02-25T05:20:15.600Z,103462.46
2019-02-25T05:22:45.804Z,103459.31
2019-02-25T05:25:19.214Z,103460.61
2019-02-25T05:27:49.391Z,103464.66
2019-02-25T05:30:31.949Z,103469.19
2019-02-25T05:33:02.151Z,103467.81
2019-02-25T05:36:06.830Z,103467.77
2019-02-25T05:38:37.033Z,103470.48
2019-02-25T05:41:12.299Z,103469.09
2019-02-25T05:43:42.505Z,103467.67
2019-02-25T05:46:12.710Z,103457.50
2019-02-25T05:48:56.200Z,103456.63
2019-02-25T05:51:26.392Z,103452.58
2019-02-25T05:53:56.582Z,103459.27
2019-02-25T05:56:26.784Z,103450.34
2019-02-25T05:59:04.196Z,103444.95
2019-02-25T06:01:36.298Z,103441.84
2019-02-25T06:04:06.483Z,103439.64
2019-02-25T06:06:44.521Z,103452.54
2019-02-25T06:09:14.726Z,103453.40
2019-02-25T06:11:57.356Z,103451.54
2019-02-25T06:14:33.020Z,103457.27
2019-02-25T06:17:03.197Z,103464.38
2019-02-25T06:19:33.404Z,103458.22
2019-02-25T06:22:03.593Z,103464.48
2019-02-25T06:24:33.788Z,103476.02
2019-02-25T06:27:06.661Z,103485.87
2019-02-25T06:29:36.854Z,103486.34
2019-02-25T06:32:17.853Z,103495.17
2019-02-25T06:34:48.072Z,103496.12
2019-02-25T06:37:18.253Z,103496.61
2019-02-25T06:39:54.326Z,103501.53
2019-02-25T06:42:39.662Z,103497.56
2019-02-25T06:45:15.692Z,103488.21
2019-02-25T06:47:45.887Z,103483.38
2019-02-25T06:50:16.159Z,103501.56
2019-02-25T06:53:02.642Z,103497.05
2019-02-25T06:55:38.339Z,103495.38
2019-02-25T06:58:50.968Z,103502.70
2019-02-25T07:01:22.091Z,103489.44
2019-02-25T07:04:05.027Z,103490.87
2019-02-25T07:06:36.832Z,103493.94
2019-02-25T07:09:11.155Z,103488.68
2019-02-25T07:11:42.998Z,103494.03
2019-02-25T07:14:26.052Z,103486.10
2019-02-25T07:17:02.146Z,103487.48
2019-02-25T07:19:46.943Z,103488.05
2019-02-25T07:22:18.790Z,103489.97
2019-02-25T07:24:56.310Z,103490.48
2019-02-25T07:27:43.215Z,103484.31
2019-02-25T07:30:15.049Z,103481.31
2019-02-25T07:32:49.738Z,103481.90
2019-02-25T07:35:21.552Z,103484.59
2019-02-25T07:38:03.519Z,103489.53
2019-02-25T07:41:15.438Z,103489.14
2019-02-25T07:44:06.023Z,103484.72
2019-02-25T07:46:43.373Z,103491.39
2019-02-25T07:49:27.366Z,103495.26
2019-02-25T07:52:10.541Z,103502.70
2019-02-25T07:54:58.871Z,103502.53
2019-02-25T07:57:46.657Z,103508.32
2019-02-25T08:00:40.953Z,103510.10
2019-02-25T08:03:18.782Z,103514.66
2019-02-25T08:05:50.602Z,103517.16
2019-02-25T08:08:27.999Z,103516.73
2019-02-25T08:11:02.755Z,103516.62
2019-02-25T08:13:47.534Z,103523.47
2019-02-25T08:16:25.393Z,103529.52
2019-02-25T08:19:05.992Z,103531.95
2019-02-25T08:21:41.922Z,103534.47
2019-02-25T08:24:13.768Z,103527.93
2019-02-25T08:27:09.637Z,103533.10
2019-02-25T08:29:47.456Z,103524.03
2019-02-25T08:32:19.349Z,103525.50
2019-02-25T08:35:08.212Z,103525.16
2019-02-25T08:37:59.129Z,103519.78
2019-02-25T08:40:44.743Z,103537.06
2019-02-25T08:43:18.089Z,103538.02
2019-02-25T08:45:55.721Z,103540.89
2019-02-25T08:48:29.990Z,103538.27
2019-02-25T08:51:00.176Z,103543.78
2019-02-25T08:53:30.373Z,103539.05
2019-02-25T08:56:00.575Z,103540.84
2019-02-25T08:58:30.749Z,103543.45
2019-02-25T09:01:00.946Z,103541.84
2019-02-25T09:03:31.139Z,103546.99
2019-02-25T09:06:01.332Z,103546.88
2019-02-25T09:08:31.517Z,103548.59
2019-02-25T09:11:01.731Z,103558.63
2019-02-25T09:13:32.973Z,103557.28
2019-02-25T09:16:04.234Z,103559.94
2019-02-25T09:18:34.427Z,103561.53
2019-02-25T09:21:04.713Z,103557.85
2019-02-25T09:23:35.866Z,103559.76
2019-02-25T09:26:06.093Z,103556.83
2019-02-25T09:28:36.277Z,103555.19
2019-02-25T09:31:06.502Z,103558.92
2019-02-25T09:33:36.783Z,103562.19
2019-02-25T09:36:07.027Z,103565.30
2019-02-25T09:38:37.247Z,103569.12
2019-02-25T09:41:19.605Z,103568.94
2019-02-25T09:43:49.798Z,103567.84
2019-02-25T09:46:19.988Z,103571.84
2019-02-25T09:48:50.172Z,103573.40
2019-02-25T09:51:20.380Z,103571.61
2019-02-25T09:53:50.550Z,103574.89
2019-02-25T09:56:20.757Z,103572.67
2019-02-25T09:58:52.003Z,103582.13
2019-02-25T10:02:00.170Z,103579.24
2019-02-25T10:04:30.367Z,103571.83
2019-02-25T10:07:02.446Z,103572.54
2019-02-25T10:09:38.122Z,103568.33
2019-02-25T10:12:08.308Z,103568.03
2019-02-25T10:14:38.509Z,103562.84
2019-02-25T10:17:08.734Z,103558.52
2019-02-25T10:19:39.114Z,103558.73
2019-02-25T10:22:10.344Z,103555.03
2019-02-25T10:24:40.515Z,103548.08
2019-02-25T10:27:10.719Z,103544.84
2019-02-25T10:29:40.914Z,103552.63
2019-02-25T10:32:12.079Z,103557.15
2019-02-25T10:34:42.323Z,103551.03
2019-02-25T10:37:49.677Z,103548.65
2019-02-25T10:40:24.039Z,103545.72
2019-02-25T10:42:51.737Z,103545.88
2019-02-25T10:45:25.993Z,103550.25
2019-02-25T10:47:58.659Z,103556.72
2019-02-25T10:50:28.840Z,103550.49
2019-02-25T10:53:03.729Z,103554.54
2019-02-25T10:55:41.387Z,103546.41
2019-02-25T10:58:12.016Z,103552.78
2019-02-25T11:00:43.825Z,103543.44
2019-02-25T11:03:24.055Z,103546.41
2019-02-25T11:06:00.808Z,103538.78
2019-02-25T11:08:32.566Z,103534.12
2019-02-25T11:11:05.541Z,103525.19
2019-02-25T11:13:36.733Z,103517.11
2019-02-25T11:16:16.452Z,103519.16
2019-02-25T11:18:47.210Z,103525.73
2019-02-25T11:21:17.393Z,103507.70
2019-02-25T11:23:49.229Z,103508.97
2019-02-25T11:26:20.472Z,103501.64
2019-02-25T11:28:50.683Z,103492.62
2019-02-25T11:31:24.097Z,103504.93
2019-02-25T11:33:52.757Z,103506.84
2019-02-25T11:36:24.019Z,103505.77
2019-02-25T11:38:54.207Z,103500.21
2019-02-25T11:41:24.646Z,103488.65
2019-02-25T11:43:55.328Z,103484.91
2019-02-25T11:46:31.103Z,103483.05
2019-02-25T11:49:01.285Z,103475.84
2019-02-25T11:51:37.358Z,103477.15
2019-02-25T11:54:07.567Z,103477.81
2019-02-25T11:56:46.123Z,103480.55
2019-02-25T11:59:16.330Z,103475.16
2019-02-25T12:01:46.506Z,103480.36
2019-02-25T12:04:53.743Z,103475.64
2019-02-25T12:07:23.922Z,103479.47
2019-02-25T12:10:00.345Z,103479.33
2019-02-25T12:12:30.593Z,103469.22
2019-02-25T12:15:00.796Z,103468.59
2019-02-25T12:17:30.970Z,103470.38
2019-02-25T12:20:01.180Z,103460.16
2019-02-25T12:22:33.303Z,103453.90
2019-02-25T12:25:04.546Z,103447.86
2019-02-25T12:27:34.728Z,103445.26
2019-02-25T12:30:11.861Z,103432.27
2019-02-25T12:32:42.054Z,103432.72
2019-02-25T12:35:12.507Z,103422.87
2019-02-25T12:37:42.712Z,103424.33
2019-02-25T12:40:30.979Z,103420.62
2019-02-25T12:43:01.148Z,103412.72
2019-02-25T12:45:31.374Z,103408.20
2019-02-25T12:48:01.557Z,103396.54
2019-02-25T12:50:38.521Z,103385.02
2019-02-25T12:53:20.731Z,103371.99
2019-02-25T12:55:50.935Z,103365.60
2019-02-25T12:58:21.208Z,103358.11
2019-02-25T13:00:52.301Z,103344.60
2019-02-25T13:03:22.503Z,103336.59
2019-02-25T13:06:01.454Z,103334.25
2019-02-25T13:08:50.688Z,103321.41
2019-02-25T13:11:26.647Z,103318.69
2019-02-25T13:14:16.829Z,103319.48
2019-02-25T13:16:50.158Z,103311.39
2019-02-25T13:19:20.342Z,103307.19
2019-02-25T13:21:54.363Z,103297.81
2019-02-25T13:24:24.542Z,103297.41
2019-02-25T13:26:54.731Z,103301.73
2019-02-25T13:29:24.916Z,103300.64
2019-02-25T13:31:59.027Z,103304.64
2019-02-25T13:34:29.215Z,103298.61
2019-02-25T13:36:59.407Z,103298.14
2019-02-25T13:39:29.613Z,103298.52
2019-02-25T13:41:59.781Z,103303.75
2019-02-25T13:44:29.987Z,103299.41
2019-02-25T13:47:00.166Z,103304.39
2019-02-25T13:49:46.246Z,103293.63
2019-02-25T13:52:16.430Z,103285.75
2019-02-25T13:54:46.662Z,103280.70
2019-02-25T13:57:16.834Z,103275.06
2019-02-25T13:59:47.038Z,103270.59
2019-02-25T14:02:21.611Z,103270.81
2019-02-25T14:04:51.815Z,103276.36
2019-02-25T14:07:27.930Z,103275.95
2019-02-25T14:10:00.092Z,103283.09
2019-02-25T14:12:30.483Z,103286.84
2019-02-25T14:15:00.684Z,103284.70
2019-02-25T14:17:41.978Z,103288.37
2019-02-25T14:20:18.000Z,103283.48
2019-02-25T14:22:48.286Z,103294.91
2019-02-25T14:25:26.954Z,103300.84
2019-02-25T14:28:08.280Z,103299.00
2019-02-25T14:30:39.782Z,103297.32
2019-02-25T14:33:23.593Z,103299.81
2019-02-25T14:36:10.990Z,103298.59
2019-02-25T14:38:41.244Z,103289.91
2019-02-25T14:41:13.376Z,103295.51
2019-02-25T14:43:47.029Z,103295.51
2019-02-25T14:46:17.306Z,103289.73
2019-02-25T14:48:47.306Z,103290.16
2019-02-25T14:51:18.474Z,103295.45
2019-02-25T14:53:49.501Z,103294.49
2019-02-25T14:56:49.605Z,103292.18
2019-02-25T14:59:20.385Z,103291.67
2019-02-25T15:01:51.165Z,103305.86
2019-02-25T15:04:35.850Z,103309.67
2019-02-25T15:07:08.647Z,103305.97
2019-02-25T15:09:39.720Z,103303.57
2019-02-25T15:12:16.086Z,103308.59
2019-02-25T15:15:00.200Z,103312.63
2019-02-25T15:17:30.575Z,103307.16
2019-02-25T15:20:00.777Z,103302.84
2019-02-25T15:22:40.774Z,103308.52
2019-02-25T15:25:23.529Z,103300.38
2019-02-25T15:27:53.712Z,103308.27
2019-02-25T15:30:30.883Z,103308.07
2019-02-25T15:33:01.186Z,103308.74
2019-02-25T15:35:39.238Z,103308.97
2019-02-25T15:38:21.545Z,103310.75
2019-02-25T15:40:51.806Z,103310.41
2019-02-25T15:43:23.302Z,103301.36
2019-02-25T15:45:54.154Z,103303.20
2019-02-25T15:48:24.345Z,103300.97
2019-02-25T15:51:00.710Z,103303.76
2019-02-25T15:53:31.117Z,103301.34
2019-02-25T15:56:14.585Z,103299.33
2019-02-25T15:58:50.781Z,103303.76
2019-02-25T16:01:20.981Z,103305.67
2019-02-25T16:03:51.309Z,103308.72
2019-02-25T16:06:28.824Z,103303.64
2019-02-25T16:08:59.274Z,103305.48
2019-02-25T16:11:32.035Z,103317.09
2019-02-25T16:14:07.172Z,103318.11
2019-02-25T16:16:37.620Z,103330.08
2019-02-25T16:19:07.879Z,103322.71
2019-02-25T16:21:58.510Z,103334.96
2019-02-25T16:24:34.191Z,103327.16
2019-02-25T16:27:19.403Z,103325.23
2019-02-25T16:29:49.753Z,103321.19
2019-02-25T16:32:20.009Z,103320.54
2019-02-25T16:34:51.937Z,103324.16
2019-02-25T16:37:24.947Z,103323.62
2019-02-25T16:40:12.404Z,103331.15
2019-02-25T16:45:59.491Z,103338.10
2019-02-25T16:48:32.650Z,103343.72
2019-02-25T16:51:10.780Z,103342.30
2019-02-25T16:53:43.365Z,103342.11
2019-02-25T16:56:16.061Z,103343.31
2019-02-25T16:58:47.704Z,103342.76
2019-02-25T17:01:19.671Z,103353.01
2019-02-25T17:03:49.823Z,103350.73
2019-02-25T17:06:20.019Z,103362.52
2019-02-25T17:08:51.042Z,103364.27
2019-02-25T17:11:22.007Z,103355.11
2019-02-25T17:13:54.741Z,103363.91
2019-02-25T17:16:25.254Z,103355.64
2019-02-25T17:19:06.452Z,103364.94
2019-02-25T17:21:36.940Z,103365.58
2019-02-25T17:24:16.136Z,103369.63
2019-02-25T17:27:01.935Z,103369.84
2019-02-25T17:29:34.165Z,103367.58
2019-02-25T17:32:25.368Z,103376.05
2019-02-25T17:35:09.456Z,103367.98
2019-02-25T17:37:56.258Z,103366.91
2019-02-25T17:40:48.705Z,103365.77
2019-02-25T17:43:20.220Z,103377.98
2019-02-25T17:45:50.731Z,103373.75
2019-02-25T17:48:21.268Z,103376.00
2019-02-25T17:50:53.437Z,103376.45
2019-02-25T17:53:24.175Z,103376.61
2019-02-25T17:55:59.413Z,103377.33
2019-02-25T17:58:29.283Z,103378.14
2019-02-25T18:01:01.065Z,103371.18
2019-02-25T18:03:32.477Z,103364.70
2019-02-25T18:06:03.486Z,103357.74
2019-02-25T18:08:35.322Z,103357.70
2019-02-25T18:11:09.698Z,103357.53
2019-02-25T18:13:46.769Z,103360.33
2019-02-25T18:16:18.976Z,103357.17
2019-02-25T18:18:50.765Z,103355.42
2019-02-25T18:21:21.260Z,103354.63
2019-02-25T18:24:01.393Z,103351.03
2019-02-25T18:26:32.209Z,103356.98
2019-02-25T18:32:13.314Z,103350.30
2019-02-25T18:34:44.558Z,103348.64
2019-02-25T18:37:15.617Z,103341.59
2019-02-25T18:39:54.289Z,103345.25
2019-02-25T18:42:24.329Z,103344.48
2019-02-25T18:44:57.673Z,103345.62
2019-02-25T18:47:27.940Z,103348.05
2019-02-25T18:50:07.411Z,103348.63
2019-02-25T18:52:38.502Z,103345.45
2019-02-25T18:55:12.023Z,103346.98
2019-02-25T18:57:51.932Z,103344.97
2019-02-25T19:00:45.314Z,103344.63
2019-02-25T19:03:17.790Z,103342.50
2019-02-25T19:06:06.891Z,103343.44
2019-02-25T19:08:37.110Z,103343.67
2019-02-25T19:11:07.328Z,103341.19
2019-02-25T19:13:37.693Z,103340.97
2019-02-25T19:16:09.009Z,103347.45
2019-02-25T19:18:41.340Z,103347.67
2019-02-25T19:21:11.085Z,103343.84
2019-02-25T19:23:44.109Z,103343.86
2019-02-25T19:26:21.897Z,103339.37
2019-02-25T19:29:08.185Z,103345.89
2019-02-25T19:31:39.905Z,103346.50
2019-02-25T19:34:15.497Z,103347.15
2019-02-25T19:36:44.253Z,103348.61
2019-02-25T19:39:23.224Z,103354.27
2019-02-25T19:42:05.418Z,103348.50
2019-02-25T19:44:44.592Z,103339.64
2019-02-25T19:47:20.479Z,103330.73
2019-02-25T19:50:16.830Z,103329.94
2019-02-25T19:52:47.142Z,103339.03
2019-02-25T19:55:23.249Z,103339.12
2019-02-25T19:58:02.942Z,103338.13
2019-02-25T20:01:00.866Z,103330.97
2019-02-25T20:03:28.978Z,103328.32
2019-02-25T20:06:00.138Z,103319.81
2019-02-25T20:08:56.403Z,103322.47
2019-02-25T20:11:28.604Z,103321.97
2019-02-25T20:14:01.521Z,103312.70
2019-02-25T20:16:33.137Z,103316.47
2019-02-25T20:19:09.234Z,103308.01
2019-02-25T20:21:40.741Z,103307.92
2019-02-25T20:24:14.384Z,103304.32
2019-02-25T20:26:44.085Z,103306.22
2019-02-25T20:29:15.220Z,103302.70
2019-02-25T20:31:47.415Z,103301.89
2019-02-25T20:34:25.901Z,103295.41
2019-02-25T20:36:59.920Z,103300.39
2019-02-25T20:39:31.783Z,103295.00
2019-02-25T20:42:01.983Z,103295.30
2019-02-25T20:44:37.769Z,103291.75
2019-02-25T20:47:15.006Z,103283.39
2019-02-25T20:49:47.393Z,103290.72
2019-02-25T20:52:18.132Z,103287.30
2019-02-25T20:54:52.162Z,103286.00
2019-02-25T20:57:29.615Z,103285.53
2019-02-25T21:00:08.991Z,103279.25
2019-02-25T21:02:40.612Z,103271.89
2019-02-25T21:05:13.922Z,103268.87
2019-02-25T21:07:43.191Z,103267.11
2019-02-25T21:10:18.950Z,103267.40
2019-02-25T21:12:50.346Z,103263.15
2019-02-25T21:15:35.441Z,103263.27
2019-02-25T21:18:07.688Z,103261.58
2019-02-25T21:20:40.059Z,103263.54
2019-02-25T21:23:12.466Z,103261.93
2019-02-25T21:25:44.183Z,103258.14
2019-02-25T21:28:17.133Z,103260.12
2019-02-25T21:30:54.295Z,103259.80
2019-02-25T21:33:34.548Z,103260.28
2019-02-25T21:36:04.745Z,103263.84
2019-02-25T21:38:36.870Z,103266.89
2019-02-25T21:41:08.973Z,103266.92
2019-02-25T21:43:38.960Z,103262.53
2019-02-25T21:46:09.143Z,103271.97
2019-02-25T21:48:50.966Z,103263.56
2019-02-25T21:51:20.221Z,103267.98
2019-02-25T21:54:08.938Z,103258.24
2019-02-25T21:56:39.444Z,103261.41
2019-02-25T21:59:17.464Z,103265.55
2019-02-25T22:02:07.454Z,103255.23
2019-02-25T22:04:40.433Z,103260.16
2019-02-25T22:07:19.838Z,103258.97
2019-02-25T22:09:53.092Z,103264.81
2019-02-25T22:12:33.030Z,103266.55
2019-02-25T22:15:42.885Z,103266.52
2019-02-25T22:18:14.109Z,103270.23
2019-02-25T22:20:47.077Z,103274.41
2019-02-25T22:23:16.773Z,103274.44
2019-02-25T22:26:05.190Z,103277.11
2019-02-25T22:28:55.275Z,103283.03
2019-02-25T22:32:01.837Z,103290.72
2019-02-25T22:34:33.841Z,103290.84
2019-02-25T22:37:04.288Z,103290.42
2019-02-25T22:39:43.816Z,103286.95
2019-02-25T22:42:15.020Z,103293.70
2019-02-25T22:44:47.477Z,103282.13
2019-02-25T22:47:18.462Z,103284.11
2019-02-25T22:49:49.278Z,103285.09
2019-02-25T22:53:01.622Z,103281.16
2019-02-25T22:55:39.241Z,103277.20
2019-02-25T22:58:08.826Z,103277.65
2019-02-25T23:00:58.226Z,103279.94
2019-02-25T23:03:28.337Z,103281.20
2019-02-25T23:06:15.631Z,103286.12
2019-02-25T23:08:46.980Z,103280.77
2019-02-25T23:11:30.290Z,103282.53
2019-02-25T23:14:00.554Z,103278.20
2019-02-25T23:16:52.360Z,103278.28
2019-02-25T23:19:22.636Z,103278.72
2019-02-25T23:21:52.919Z,103281.09
2019-02-25T23:24:37.438Z,103273.02
2019-02-25T23:27:08.217Z,103269.92
2019-02-25T23:29:38.809Z,103269.70
2019-02-25T23:32:09.986Z,103264.72
2019-02-25T23:34:55.594Z,103270.17
2019-02-25T23:37:25.843Z,103267.95
2019-02-25T23:39:55.986Z,103263.50
2019-02-25T23:42:26.195Z,103262.58
2019-02-25T23:45:46.295Z,103262.09
2019-02-25T23:48:16.626Z,103268.84
2019-02-25T23:50:48.089Z,103260.82
2019-02-25T23:53:18.803Z,103259.03
2019-02-25T23:55:50.075Z,103258.62
2019-02-25T23:58:22.290Z,103258.60
